sensor_id;sensor_type;location;lat;lon;timestamp;temperature;humidity
1083;DHT22;530;51.448;7.238;2023-09-12T00:01:04;21.50;99.90
1083;DHT22;530;51.448;7.238;2023-09-12T00:03:31;21.50;99.90
1083;DHT22;530;51.448;7.238;2023-09-12T00:05:59;21.50;99.90
1083;DHT22;530;51.448;7.238;2023-09-12T00:08:25;21.50;99.90
1083;DHT22;530;51.448;7.238;2023-09-12T00:11:08;21.50;99.90
1083;DHT22;530;51.448;7.238;2023-09-12T00:13:40;21.50;99.90
1083;DHT22;530;51.448;7.238;2023-09-12T00:16:07;21.50;99.90
1083;DHT22;530;51.448;7.238;2023-09-12T00:18:35;21.50;99.90
1083;DHT22;530;51.448;7.238;2023-09-12T00:21:01;21.60;99.90
1083;DHT22;530;51.448;7.238;2023-09-12T00:23:27;21.60;99.90
1083;DHT22;530;51.448;7.238;2023-09-12T00:25:53;21.50;99.90
1083;DHT22;530;51.448;7.238;2023-09-12T00:28:19;21.40;99.90
1083;DHT22;530;51.448;7.238;2023-09-12T00:30:45;21.50;99.90
1083;DHT22;530;51.448;7.238;2023-09-12T00:33:11;21.40;99.90
1083;DHT22;530;51.448;7.238;2023-09-12T00:35:36;21.30;99.90
1083;DHT22;530;51.448;7.238;2023-09-12T00:38:02;21.30;99.90
1083;DHT22;530;51.448;7.238;2023-09-12T00:40:28;21.30;99.90
1083;DHT22;530;51.448;7.238;2023-09-12T00:42:54;21.30;99.90
1083;DHT22;530;51.448;7.238;2023-09-12T00:45:20;21.20;99.90
1083;DHT22;530;51.448;7.238;2023-09-12T00:47:46;21.20;99.90
1083;DHT22;530;51.448;7.238;2023-09-12T00:50:13;21.20;99.90
1083;DHT22;530;51.448;7.238;2023-09-12T00:52:40;21.20;99.90
1083;DHT22;530;51.448;7.238;2023-09-12T00:55:08;21.20;99.90
1083;DHT22;530;51.448;7.238;2023-09-12T00:57:34;21.20;99.90
1083;DHT22;530;51.448;7.238;2023-09-12T01:00:05;21.20;99.90
1083;DHT22;530;51.448;7.238;2023-09-12T01:02:43;21.30;99.90
1083;DHT22;530;51.448;7.238;2023-09-12T01:05:11;21.30;99.90
1083;DHT22;530;51.448;7.238;2023-09-12T01:07:37;21.30;99.90
1083;DHT22;530;51.448;7.238;2023-09-12T01:10:07;21.30;99.90
1083;DHT22;530;51.448;7.238;2023-09-12T01:12:33;21.30;99.90
1083;DHT22;530;51.448;7.238;2023-09-12T01:14:59;21.30;99.90
1083;DHT22;530;51.448;7.238;2023-09-12T01:17:25;21.30;99.90
1083;DHT22;530;51.448;7.238;2023-09-12T01:19:51;21.30;99.90
1083;DHT22;530;51.448;7.238;2023-09-12T01:27:57;21.20;99.90
1083;DHT22;530;51.448;7.238;2023-09-12T01:30:25;21.20;99.90
1083;DHT22;530;51.448;7.238;2023-09-12T01:32:53;21.20;99.90
1083;DHT22;530;51.448;7.238;2023-09-12T01:35:19;21.20;99.90
1083;DHT22;530;51.448;7.238;2023-09-12T01:37:45;21.10;99.90
1083;DHT22;530;51.448;7.238;2023-09-12T01:40:10;21.00;99.90
1083;DHT22;530;51.448;7.238;2023-09-12T01:42:38;21.00;99.90
1083;DHT22;530;51.448;7.238;2023-09-12T01:45:08;21.00;99.90
1083;DHT22;530;51.448;7.238;2023-09-12T01:47:34;20.90;99.90
1083;DHT22;530;51.448;7.238;2023-09-12T01:50:02;21.00;99.90
1083;DHT22;530;51.448;7.238;2023-09-12T01:52:28;20.90;99.90
1083;DHT22;530;51.448;7.238;2023-09-12T01:54:55;21.00;99.90
1083;DHT22;530;51.448;7.238;2023-09-12T01:57:22;21.00;99.90
1083;DHT22;530;51.448;7.238;2023-09-12T01:59:48;21.00;99.90
1083;DHT22;530;51.448;7.238;2023-09-12T02:02:17;21.10;99.90
1083;DHT22;530;51.448;7.238;2023-09-12T02:05:13;21.20;99.90
1083;DHT22;530;51.448;7.238;2023-09-12T02:07:41;21.20;99.90
1083;DHT22;530;51.448;7.238;2023-09-12T02:10:08;21.20;99.90
1083;DHT22;530;51.448;7.238;2023-09-12T02:12:35;21.20;99.90
1083;DHT22;530;51.448;7.238;2023-09-12T02:15:01;21.00;99.90
1083;DHT22;530;51.448;7.238;2023-09-12T02:17:27;21.00;99.90
1083;DHT22;530;51.448;7.238;2023-09-12T02:19:52;20.90;99.90
1083;DHT22;530;51.448;7.238;2023-09-12T02:22:18;20.90;99.90
1083;DHT22;530;51.448;7.238;2023-09-12T02:24:44;20.90;99.90
1083;DHT22;530;51.448;7.238;2023-09-12T02:27:10;20.90;99.90
1083;DHT22;530;51.448;7.238;2023-09-12T02:29:38;20.90;99.90
1083;DHT22;530;51.448;7.238;2023-09-12T02:32:04;21.00;99.90
1083;DHT22;530;51.448;7.238;2023-09-12T02:34:29;20.90;99.90
1083;DHT22;530;51.448;7.238;2023-09-12T02:36:55;20.90;99.90
1083;DHT22;530;51.448;7.238;2023-09-12T02:39:21;20.90;99.90
1083;DHT22;530;51.448;7.238;2023-09-12T02:41:46;20.80;99.90
1083;DHT22;530;51.448;7.238;2023-09-12T02:44:12;20.70;99.90
1083;DHT22;530;51.448;7.238;2023-09-12T02:46:38;20.80;99.90
1083;DHT22;530;51.448;7.238;2023-09-12T02:49:03;20.70;99.90
1083;DHT22;530;51.448;7.238;2023-09-12T02:51:29;20.70;99.90
1083;DHT22;530;51.448;7.238;2023-09-12T02:53:55;20.80;99.90
1083;DHT22;530;51.448;7.238;2023-09-12T02:56:20;20.70;99.90
1083;DHT22;530;51.448;7.238;2023-09-12T02:58:47;20.70;99.90
1083;DHT22;530;51.448;7.238;2023-09-12T03:01:17;20.70;99.90
1083;DHT22;530;51.448;7.238;2023-09-12T03:03:45;20.80;99.90
1083;DHT22;530;51.448;7.238;2023-09-12T03:06:12;20.80;99.90
1083;DHT22;530;51.448;7.238;2023-09-12T03:08:42;20.80;99.90
1083;DHT22;530;51.448;7.238;2023-09-12T03:11:09;20.70;99.90
1083;DHT22;530;51.448;7.238;2023-09-12T03:13:36;20.60;99.90
1083;DHT22;530;51.448;7.238;2023-09-12T03:16:02;20.60;99.90
1083;DHT22;530;51.448;7.238;2023-09-12T03:18:28;20.70;99.90
1083;DHT22;530;51.448;7.238;2023-09-12T03:20:54;20.70;99.90
1083;DHT22;530;51.448;7.238;2023-09-12T03:23:20;20.70;99.90
1083;DHT22;530;51.448;7.238;2023-09-12T03:25:46;20.70;99.90
1083;DHT22;530;51.448;7.238;2023-09-12T03:28:12;20.70;99.90
1083;DHT22;530;51.448;7.238;2023-09-12T03:30:38;20.70;99.90
1083;DHT22;530;51.448;7.238;2023-09-12T03:33:05;20.70;99.90
1083;DHT22;530;51.448;7.238;2023-09-12T03:35:33;20.70;99.90
1083;DHT22;530;51.448;7.238;2023-09-12T03:38:00;20.80;99.90
1083;DHT22;530;51.448;7.238;2023-09-12T03:40:28;20.80;99.90
1083;DHT22;530;51.448;7.238;2023-09-12T03:42:55;20.90;99.90
1083;DHT22;530;51.448;7.238;2023-09-12T03:45:20;21.00;99.90
1083;DHT22;530;51.448;7.238;2023-09-12T03:47:46;21.00;99.90
1083;DHT22;530;51.448;7.238;2023-09-12T03:50:12;21.00;99.90
1083;DHT22;530;51.448;7.238;2023-09-12T03:52:39;20.90;99.90
1083;DHT22;530;51.448;7.238;2023-09-12T03:55:05;20.90;99.90
1083;DHT22;530;51.448;7.238;2023-09-12T03:57:31;21.00;99.90
1083;DHT22;530;51.448;7.238;2023-09-12T03:59:57;21.00;99.90
1083;DHT22;530;51.448;7.238;2023-09-12T04:02:23;20.90;99.90
1083;DHT22;530;51.448;7.238;2023-09-12T04:04:48;20.80;99.90
1083;DHT22;530;51.448;7.238;2023-09-12T04:07:14;20.70;99.90
1083;DHT22;530;51.448;7.238;2023-09-12T04:09:40;20.70;99.90
1083;DHT22;530;51.448;7.238;2023-09-12T04:12:06;20.70;99.90
1083;DHT22;530;51.448;7.238;2023-09-12T04:14:32;20.70;99.90
1083;DHT22;530;51.448;7.238;2023-09-12T04:16:58;20.60;99.90
1083;DHT22;530;51.448;7.238;2023-09-12T04:19:25;20.60;99.90
1083;DHT22;530;51.448;7.238;2023-09-12T04:21:50;20.70;99.90
1083;DHT22;530;51.448;7.238;2023-09-12T04:24:16;20.70;99.90
1083;DHT22;530;51.448;7.238;2023-09-12T04:26:43;20.60;99.90
1083;DHT22;530;51.448;7.238;2023-09-12T04:29:10;20.60;99.90
1083;DHT22;530;51.448;7.238;2023-09-12T04:31:35;20.70;99.90
1083;DHT22;530;51.448;7.238;2023-09-12T04:34:01;20.70;99.90
1083;DHT22;530;51.448;7.238;2023-09-12T04:36:27;20.70;99.90
1083;DHT22;530;51.448;7.238;2023-09-12T04:38:52;20.70;99.90
1083;DHT22;530;51.448;7.238;2023-09-12T04:41:18;20.70;99.90
1083;DHT22;530;51.448;7.238;2023-09-12T04:43:44;20.70;99.90
1083;DHT22;530;51.448;7.238;2023-09-12T04:46:11;20.70;99.90
1083;DHT22;530;51.448;7.238;2023-09-12T04:48:37;20.70;99.90
1083;DHT22;530;51.448;7.238;2023-09-12T04:51:03;20.60;99.90
1083;DHT22;530;51.448;7.238;2023-09-12T04:53:28;20.60;99.90
1083;DHT22;530;51.448;7.238;2023-09-12T04:56:03;20.60;99.90
1083;DHT22;530;51.448;7.238;2023-09-12T04:58:28;20.60;99.90
1083;DHT22;530;51.448;7.238;2023-09-12T05:00:55;20.60;99.90
1083;DHT22;530;51.448;7.238;2023-09-12T05:03:23;20.70;99.90
1083;DHT22;530;51.448;7.238;2023-09-12T05:05:49;20.70;99.90
1083;DHT22;530;51.448;7.238;2023-09-12T05:08:16;20.70;99.90
1083;DHT22;530;51.448;7.238;2023-09-12T05:10:44;20.70;99.90
1083;DHT22;530;51.448;7.238;2023-09-12T05:13:09;20.70;99.90
1083;DHT22;530;51.448;7.238;2023-09-12T05:15:35;20.60;99.90
1083;DHT22;530;51.448;7.238;2023-09-12T05:18:02;20.60;99.90
1083;DHT22;530;51.448;7.238;2023-09-12T05:20:28;20.60;99.90
1083;DHT22;530;51.448;7.238;2023-09-12T05:22:54;20.60;99.90
1083;DHT22;530;51.448;7.238;2023-09-12T05:25:19;20.60;99.90
1083;DHT22;530;51.448;7.238;2023-09-12T05:27:45;20.60;99.90
1083;DHT22;530;51.448;7.238;2023-09-12T05:30:11;20.60;99.90
1083;DHT22;530;51.448;7.238;2023-09-12T05:32:37;20.60;99.90
1083;DHT22;530;51.448;7.238;2023-09-12T05:35:03;20.60;99.90
1083;DHT22;530;51.448;7.238;2023-09-12T05:37:29;20.60;99.90
1083;DHT22;530;51.448;7.238;2023-09-12T05:39:55;20.60;99.90
1083;DHT22;530;51.448;7.238;2023-09-12T05:42:20;20.60;99.90
1083;DHT22;530;51.448;7.238;2023-09-12T05:44:48;20.70;99.90
1083;DHT22;530;51.448;7.238;2023-09-12T05:47:15;20.70;99.90
1083;DHT22;530;51.448;7.238;2023-09-12T05:49:41;20.70;99.90
1083;DHT22;530;51.448;7.238;2023-09-12T05:52:07;20.60;99.90
1083;DHT22;530;51.448;7.238;2023-09-12T05:54:32;20.60;99.90
1083;DHT22;530;51.448;7.238;2023-09-12T05:56:58;20.40;99.90
1083;DHT22;530;51.448;7.238;2023-09-12T05:59:24;20.40;99.90
1083;DHT22;530;51.448;7.238;2023-09-12T06:01:49;20.30;99.90
1083;DHT22;530;51.448;7.238;2023-09-12T06:04:15;20.20;99.90
1083;DHT22;530;51.448;7.238;2023-09-12T06:06:41;20.30;99.90
1083;DHT22;530;51.448;7.238;2023-09-12T06:09:06;20.30;99.90
1083;DHT22;530;51.448;7.238;2023-09-12T06:11:34;20.40;99.90
1083;DHT22;530;51.448;7.238;2023-09-12T06:14:00;20.40;99.90
1083;DHT22;530;51.448;7.238;2023-09-12T06:16:25;20.40;99.90
1083;DHT22;530;51.448;7.238;2023-09-12T06:18:52;20.50;99.90
1083;DHT22;530;51.448;7.238;2023-09-12T06:21:19;20.50;99.90
1083;DHT22;530;51.448;7.238;2023-09-12T06:24:00;20.40;99.90
1083;DHT22;530;51.448;7.238;2023-09-12T06:26:32;20.30;99.90
1083;DHT22;530;51.448;7.238;2023-09-12T06:28:58;20.20;99.90
1083;DHT22;530;51.448;7.238;2023-09-12T06:31:24;20.20;99.90
1083;DHT22;530;51.448;7.238;2023-09-12T06:33:50;20.20;99.90
1083;DHT22;530;51.448;7.238;2023-09-12T06:36:15;20.30;99.90
1083;DHT22;530;51.448;7.238;2023-09-12T06:38:41;20.30;99.90
1083;DHT22;530;51.448;7.238;2023-09-12T06:41:06;20.30;99.90
1083;DHT22;530;51.448;7.238;2023-09-12T06:43:32;20.30;99.90
1083;DHT22;530;51.448;7.238;2023-09-12T06:45:58;20.30;99.90
1083;DHT22;530;51.448;7.238;2023-09-12T06:48:24;20.30;99.90
1083;DHT22;530;51.448;7.238;2023-09-12T06:50:50;20.40;99.90
1083;DHT22;530;51.448;7.238;2023-09-12T06:53:16;20.30;99.90
1083;DHT22;530;51.448;7.238;2023-09-12T06:55:41;20.30;99.90
1083;DHT22;530;51.448;7.238;2023-09-12T06:58:07;20.30;99.90
1083;DHT22;530;51.448;7.238;2023-09-12T07:00:33;20.20;99.90
1083;DHT22;530;51.448;7.238;2023-09-12T07:02:59;20.20;99.90
1083;DHT22;530;51.448;7.238;2023-09-12T07:05:24;20.20;99.90
1083;DHT22;530;51.448;7.238;2023-09-12T07:07:51;20.20;99.90
1083;DHT22;530;51.448;7.238;2023-09-12T07:10:17;20.20;99.90
1083;DHT22;530;51.448;7.238;2023-09-12T07:12:43;20.10;99.90
1083;DHT22;530;51.448;7.238;2023-09-12T07:15:09;20.00;99.90
1083;DHT22;530;51.448;7.238;2023-09-12T07:17:35;20.00;99.90
1083;DHT22;530;51.448;7.238;2023-09-12T07:20:00;20.00;99.90
1083;DHT22;530;51.448;7.238;2023-09-12T07:22:26;20.00;99.90
1083;DHT22;530;51.448;7.238;2023-09-12T07:24:52;20.00;99.90
1083;DHT22;530;51.448;7.238;2023-09-12T07:27:17;20.00;99.90
1083;DHT22;530;51.448;7.238;2023-09-12T07:29:43;20.10;99.90
1083;DHT22;530;51.448;7.238;2023-09-12T07:32:09;20.10;99.90
1083;DHT22;530;51.448;7.238;2023-09-12T07:34:34;20.10;99.90
1083;DHT22;530;51.448;7.238;2023-09-12T07:37:01;20.10;99.90
1083;DHT22;530;51.448;7.238;2023-09-12T07:39:26;20.00;99.90
1083;DHT22;530;51.448;7.238;2023-09-12T07:41:52;19.90;99.90
1083;DHT22;530;51.448;7.238;2023-09-12T07:44:18;20.00;99.90
1083;DHT22;530;51.448;7.238;2023-09-12T07:46:43;20.00;99.90
1083;DHT22;530;51.448;7.238;2023-09-12T07:49:09;20.00;99.90
1083;DHT22;530;51.448;7.238;2023-09-12T07:51:35;20.10;99.90
1083;DHT22;530;51.448;7.238;2023-09-12T07:54:01;20.10;99.90
1083;DHT22;530;51.448;7.238;2023-09-12T07:56:27;20.20;99.90
1083;DHT22;530;51.448;7.238;2023-09-12T07:58:53;20.20;99.90
1083;DHT22;530;51.448;7.238;2023-09-12T08:01:19;20.20;99.90
1083;DHT22;530;51.448;7.238;2023-09-12T08:03:44;20.20;99.90
1083;DHT22;530;51.448;7.238;2023-09-12T08:06:10;20.30;99.90
1083;DHT22;530;51.448;7.238;2023-09-12T08:08:36;20.30;99.90
1083;DHT22;530;51.448;7.238;2023-09-12T08:11:02;20.40;99.90
1083;DHT22;530;51.448;7.238;2023-09-12T08:13:28;20.50;99.90
1083;DHT22;530;51.448;7.238;2023-09-12T08:15:54;20.50;99.90
1083;DHT22;530;51.448;7.238;2023-09-12T08:18:20;20.60;99.90
1083;DHT22;530;51.448;7.238;2023-09-12T08:20:46;20.60;99.90
1083;DHT22;530;51.448;7.238;2023-09-12T08:23:11;20.70;99.90
1083;DHT22;530;51.448;7.238;2023-09-12T08:25:37;20.70;99.90
1083;DHT22;530;51.448;7.238;2023-09-12T08:28:04;20.70;99.90
1083;DHT22;530;51.448;7.238;2023-09-12T08:30:30;20.70;99.90
1083;DHT22;530;51.448;7.238;2023-09-12T08:32:56;20.70;99.90
1083;DHT22;530;51.448;7.238;2023-09-12T08:35:22;20.70;99.90
1083;DHT22;530;51.448;7.238;2023-09-12T08:37:47;20.70;99.90
1083;DHT22;530;51.448;7.238;2023-09-12T08:40:13;20.60;99.90
1083;DHT22;530;51.448;7.238;2023-09-12T08:42:44;20.60;99.90
1083;DHT22;530;51.448;7.238;2023-09-12T08:45:17;20.60;99.90
1083;DHT22;530;51.448;7.238;2023-09-12T08:47:50;20.60;99.90
1083;DHT22;530;51.448;7.238;2023-09-12T08:50:17;20.50;99.90
1083;DHT22;530;51.448;7.238;2023-09-12T08:52:44;20.50;99.90
1083;DHT22;530;51.448;7.238;2023-09-12T08:55:11;20.50;99.90
1083;DHT22;530;51.448;7.238;2023-09-12T08:57:50;20.60;99.90
1083;DHT22;530;51.448;7.238;2023-09-12T09:00:16;20.50;99.90
1083;DHT22;530;51.448;7.238;2023-09-12T09:02:42;20.50;99.90
1083;DHT22;530;51.448;7.238;2023-09-12T09:05:10;20.60;99.90
1083;DHT22;530;51.448;7.238;2023-09-12T09:07:41;20.60;99.90
1083;DHT22;530;51.448;7.238;2023-09-12T09:10:10;20.70;99.90
1083;DHT22;530;51.448;7.238;2023-09-12T09:12:39;20.80;99.90
1083;DHT22;530;51.448;7.238;2023-09-12T09:15:21;20.90;99.90
1083;DHT22;530;51.448;7.238;2023-09-12T09:17:48;21.00;99.90
1083;DHT22;530;51.448;7.238;2023-09-12T09:20:42;21.10;99.90
1083;DHT22;530;51.448;7.238;2023-09-12T09:23:10;21.30;99.90
1083;DHT22;530;51.448;7.238;2023-09-12T09:25:39;21.60;99.90
1083;DHT22;530;51.448;7.238;2023-09-12T09:28:19;21.70;99.90
1083;DHT22;530;51.448;7.238;2023-09-12T09:30:46;22.00;99.90
1083;DHT22;530;51.448;7.238;2023-09-12T09:33:13;22.20;99.90
1083;DHT22;530;51.448;7.238;2023-09-12T09:35:43;22.30;99.90
1083;DHT22;530;51.448;7.238;2023-09-12T09:38:10;22.50;99.90
1083;DHT22;530;51.448;7.238;2023-09-12T09:40:44;22.60;99.90
1083;DHT22;530;51.448;7.238;2023-09-12T09:43:11;22.80;99.90
1083;DHT22;530;51.448;7.238;2023-09-12T09:45:44;22.90;99.90
1083;DHT22;530;51.448;7.238;2023-09-12T09:48:10;23.10;99.90
1083;DHT22;530;51.448;7.238;2023-09-12T09:50:42;23.20;99.90
1083;DHT22;530;51.448;7.238;2023-09-12T09:53:08;23.30;99.90
1083;DHT22;530;51.448;7.238;2023-09-12T09:55:35;23.30;99.90
1083;DHT22;530;51.448;7.238;2023-09-12T09:58:02;23.30;99.90
1083;DHT22;530;51.448;7.238;2023-09-12T10:00:29;23.30;99.90
1083;DHT22;530;51.448;7.238;2023-09-12T10:02:57;23.20;99.90
1083;DHT22;530;51.448;7.238;2023-09-12T10:05:23;23.10;99.90
1083;DHT22;530;51.448;7.238;2023-09-12T10:07:50;22.90;99.90
1083;DHT22;530;51.448;7.238;2023-09-12T10:10:17;22.90;99.90
1083;DHT22;530;51.448;7.238;2023-09-12T10:12:52;22.80;99.90
1083;DHT22;530;51.448;7.238;2023-09-12T10:15:20;22.80;99.90
1083;DHT22;530;51.448;7.238;2023-09-12T10:17:55;22.90;99.90
1083;DHT22;530;51.448;7.238;2023-09-12T10:20:33;23.00;99.90
1083;DHT22;530;51.448;7.238;2023-09-12T10:25:28;23.10;99.90
1083;DHT22;530;51.448;7.238;2023-09-12T10:27:55;23.10;99.90
1083;DHT22;530;51.448;7.238;2023-09-12T10:30:22;23.10;99.90
1083;DHT22;530;51.448;7.238;2023-09-12T10:32:49;23.20;99.90
1083;DHT22;530;51.448;7.238;2023-09-12T10:35:16;23.40;99.90
1083;DHT22;530;51.448;7.238;2023-09-12T10:37:44;23.60;99.90
1083;DHT22;530;51.448;7.238;2023-09-12T10:40:11;23.70;99.90
1083;DHT22;530;51.448;7.238;2023-09-12T10:42:39;23.90;99.90
1083;DHT22;530;51.448;7.238;2023-09-12T10:45:06;23.90;99.90
1083;DHT22;530;51.448;7.238;2023-09-12T10:47:35;23.90;99.90
1083;DHT22;530;51.448;7.238;2023-09-12T10:50:01;24.00;99.90
1083;DHT22;530;51.448;7.238;2023-09-12T10:52:28;24.00;99.90
1083;DHT22;530;51.448;7.238;2023-09-12T10:54:54;24.00;99.90
1083;DHT22;530;51.448;7.238;2023-09-12T10:57:20;24.20;99.90
1083;DHT22;530;51.448;7.238;2023-09-12T11:04:55;24.70;99.90
1083;DHT22;530;51.448;7.238;2023-09-12T11:12:42;25.00;99.90
1083;DHT22;530;51.448;7.238;2023-09-12T11:15:09;25.00;99.90
1083;DHT22;530;51.448;7.238;2023-09-12T11:17:42;25.00;99.90
1083;DHT22;530;51.448;7.238;2023-09-12T11:20:09;25.10;99.90
1083;DHT22;530;51.448;7.238;2023-09-12T11:22:38;25.00;99.90
1083;DHT22;530;51.448;7.238;2023-09-12T11:30:23;25.00;99.90
1083;DHT22;530;51.448;7.238;2023-09-12T11:32:50;24.90;99.90
1083;DHT22;530;51.448;7.238;2023-09-12T11:35:25;24.90;99.90
1083;DHT22;530;51.448;7.238;2023-09-12T11:37:58;24.80;99.90
1083;DHT22;530;51.448;7.238;2023-09-12T11:43:00;24.70;99.90
1083;DHT22;530;51.448;7.238;2023-09-12T11:45:27;24.70;99.90
1083;DHT22;530;51.448;7.238;2023-09-12T11:47:53;24.70;99.90
1083;DHT22;530;51.448;7.238;2023-09-12T11:50:30;24.70;99.90
1083;DHT22;530;51.448;7.238;2023-09-12T11:55:25;24.70;99.90
1083;DHT22;530;51.448;7.238;2023-09-12T11:57:51;24.80;99.90
1083;DHT22;530;51.448;7.238;2023-09-12T12:00:17;24.90;99.90
1083;DHT22;530;51.448;7.238;2023-09-12T12:02:45;25.10;99.90
1083;DHT22;530;51.448;7.238;2023-09-12T12:05:12;25.00;99.90
1083;DHT22;530;51.448;7.238;2023-09-12T12:07:38;25.00;99.90
1083;DHT22;530;51.448;7.238;2023-09-12T12:10:05;25.10;99.90
1083;DHT22;530;51.448;7.238;2023-09-12T12:12:31;25.10;99.90
1083;DHT22;530;51.448;7.238;2023-09-12T12:14:57;25.10;99.90
1083;DHT22;530;51.448;7.238;2023-09-12T12:17:22;25.10;99.90
1083;DHT22;530;51.448;7.238;2023-09-12T12:19:48;25.20;99.90
1083;DHT22;530;51.448;7.238;2023-09-12T12:22:14;25.30;99.90
1083;DHT22;530;51.448;7.238;2023-09-12T12:24:41;25.40;99.90
1083;DHT22;530;51.448;7.238;2023-09-12T12:27:08;25.40;99.90
1083;DHT22;530;51.448;7.238;2023-09-12T12:29:36;25.50;99.90
1083;DHT22;530;51.448;7.238;2023-09-12T12:32:03;25.50;99.90
1083;DHT22;530;51.448;7.238;2023-09-12T12:34:30;25.60;99.90
1083;DHT22;530;51.448;7.238;2023-09-12T12:36:57;25.70;99.90
1083;DHT22;530;51.448;7.238;2023-09-12T12:39:23;25.70;99.90
1083;DHT22;530;51.448;7.238;2023-09-12T12:41:54;25.70;99.90
1083;DHT22;530;51.448;7.238;2023-09-12T12:44:21;25.80;99.90
1083;DHT22;530;51.448;7.238;2023-09-12T12:46:53;25.80;99.90
1083;DHT22;530;51.448;7.238;2023-09-12T12:49:19;25.70;99.90
1083;DHT22;530;51.448;7.238;2023-09-12T12:51:47;25.50;99.90
1083;DHT22;530;51.448;7.238;2023-09-12T12:54:13;25.50;99.90
1083;DHT22;530;51.448;7.238;2023-09-12T12:56:39;25.50;99.90
1083;DHT22;530;51.448;7.238;2023-09-12T12:59:06;25.60;99.90
1083;DHT22;530;51.448;7.238;2023-09-12T13:01:37;25.50;99.90
1083;DHT22;530;51.448;7.238;2023-09-12T13:04:10;25.70;99.90
1083;DHT22;530;51.448;7.238;2023-09-12T13:06:36;25.80;99.90
1083;DHT22;530;51.448;7.238;2023-09-12T13:09:03;25.90;99.90
1083;DHT22;530;51.448;7.238;2023-09-12T13:11:31;25.90;99.90
1083;DHT22;530;51.448;7.238;2023-09-12T13:13:59;26.00;99.90
1083;DHT22;530;51.448;7.238;2023-09-12T13:16:25;26.10;99.90
1083;DHT22;530;51.448;7.238;2023-09-12T13:18:51;26.00;99.90
1083;DHT22;530;51.448;7.238;2023-09-12T13:21:16;26.00;99.90
1083;DHT22;530;51.448;7.238;2023-09-12T13:23:42;25.80;99.90
1083;DHT22;530;51.448;7.238;2023-09-12T13:26:09;25.70;99.90
1083;DHT22;530;51.448;7.238;2023-09-12T13:28:35;25.50;99.90
1083;DHT22;530;51.448;7.238;2023-09-12T13:31:01;25.50;99.90
1083;DHT22;530;51.448;7.238;2023-09-12T13:33:27;25.60;99.90
1083;DHT22;530;51.448;7.238;2023-09-12T13:35:52;25.60;99.90
1083;DHT22;530;51.448;7.238;2023-09-12T13:38:18;25.60;99.90
1083;DHT22;530;51.448;7.238;2023-09-12T13:40:46;25.60;99.90
1083;DHT22;530;51.448;7.238;2023-09-12T13:43:12;25.60;99.90
1083;DHT22;530;51.448;7.238;2023-09-12T13:45:38;25.60;99.90
1083;DHT22;530;51.448;7.238;2023-09-12T13:48:05;25.70;99.90
1083;DHT22;530;51.448;7.238;2023-09-12T13:50:31;25.80;99.90
1083;DHT22;530;51.448;7.238;2023-09-12T13:52:59;25.80;99.90
1083;DHT22;530;51.448;7.238;2023-09-12T13:55:25;25.80;99.90
1083;DHT22;530;51.448;7.238;2023-09-12T13:57:51;25.80;99.90
1083;DHT22;530;51.448;7.238;2023-09-12T14:00:17;25.70;99.90
1083;DHT22;530;51.448;7.238;2023-09-12T14:02:42;25.60;99.90
1083;DHT22;530;51.448;7.238;2023-09-12T14:05:10;25.50;99.90
1083;DHT22;530;51.448;7.238;2023-09-12T14:07:36;25.40;99.90
1083;DHT22;530;51.448;7.238;2023-09-12T14:10:04;25.30;99.90
1083;DHT22;530;51.448;7.238;2023-09-12T14:12:29;25.30;99.90
1083;DHT22;530;51.448;7.238;2023-09-12T14:14:55;25.40;99.90
1083;DHT22;530;51.448;7.238;2023-09-12T14:17:20;25.40;99.90
1083;DHT22;530;51.448;7.238;2023-09-12T14:19:46;25.40;99.90
1083;DHT22;530;51.448;7.238;2023-09-12T14:22:12;25.40;99.90
1083;DHT22;530;51.448;7.238;2023-09-12T14:24:37;25.30;99.90
1083;DHT22;530;51.448;7.238;2023-09-12T14:27:04;25.40;99.90
1083;DHT22;530;51.448;7.238;2023-09-12T14:29:30;25.50;99.90
1083;DHT22;530;51.448;7.238;2023-09-12T14:31:56;25.50;99.90
1083;DHT22;530;51.448;7.238;2023-09-12T14:34:25;25.50;99.90
1083;DHT22;530;51.448;7.238;2023-09-12T14:36:55;25.40;99.90
1083;DHT22;530;51.448;7.238;2023-09-12T14:39:21;25.50;99.90
1083;DHT22;530;51.448;7.238;2023-09-12T14:41:47;25.50;99.90
1083;DHT22;530;51.448;7.238;2023-09-12T14:44:21;25.50;99.90
1083;DHT22;530;51.448;7.238;2023-09-12T14:46:47;25.60;99.90
1083;DHT22;530;51.448;7.238;2023-09-12T14:49:13;25.60;99.90
1083;DHT22;530;51.448;7.238;2023-09-12T14:51:39;25.60;99.90
1083;DHT22;530;51.448;7.238;2023-09-12T14:54:05;25.50;99.90
1083;DHT22;530;51.448;7.238;2023-09-12T14:56:32;25.50;99.90
1083;DHT22;530;51.448;7.238;2023-09-12T14:58:57;25.50;99.90
1083;DHT22;530;51.448;7.238;2023-09-12T15:35:07;25.30;99.90
1083;DHT22;530;51.448;7.238;2023-09-12T15:37:36;25.00;99.90
1083;DHT22;530;51.448;7.238;2023-09-12T15:40:02;25.00;99.90
1083;DHT22;530;51.448;7.238;2023-09-12T15:42:28;25.00;99.90
1083;DHT22;530;51.448;7.238;2023-09-12T15:44:53;25.10;99.90
1083;DHT22;530;51.448;7.238;2023-09-12T15:47:19;25.10;99.90
1083;DHT22;530;51.448;7.238;2023-09-12T15:49:45;25.00;99.90
1083;DHT22;530;51.448;7.238;2023-09-12T15:52:10;25.00;99.90
1083;DHT22;530;51.448;7.238;2023-09-12T15:54:36;25.00;99.90
1083;DHT22;530;51.448;7.238;2023-09-12T15:57:02;24.90;99.90
1083;DHT22;530;51.448;7.238;2023-09-12T15:59:28;24.80;99.90
1083;DHT22;530;51.448;7.238;2023-09-12T16:01:55;24.80;99.90
1083;DHT22;530;51.448;7.238;2023-09-12T16:04:21;24.80;99.90
1083;DHT22;530;51.448;7.238;2023-09-12T16:06:46;24.70;99.90
1083;DHT22;530;51.448;7.238;2023-09-12T16:09:12;24.80;99.90
1083;DHT22;530;51.448;7.238;2023-09-12T16:11:38;24.80;99.90
1083;DHT22;530;51.448;7.238;2023-09-12T16:14:03;24.70;99.90
1083;DHT22;530;51.448;7.238;2023-09-12T16:16:29;24.80;99.90
1083;DHT22;530;51.448;7.238;2023-09-12T16:18:55;24.70;99.90
1083;DHT22;530;51.448;7.238;2023-09-12T16:21:20;24.60;99.90
1083;DHT22;530;51.448;7.238;2023-09-12T16:23:51;24.60;99.90
1083;DHT22;530;51.448;7.238;2023-09-12T16:26:18;24.60;99.90
1083;DHT22;530;51.448;7.238;2023-09-12T16:28:44;24.50;99.90
1083;DHT22;530;51.448;7.238;2023-09-12T16:31:09;24.40;99.90
1083;DHT22;530;51.448;7.238;2023-09-12T16:33:35;24.40;99.90
1083;DHT22;530;51.448;7.238;2023-09-12T16:36:01;24.40;99.90
1083;DHT22;530;51.448;7.238;2023-09-12T16:38:27;24.30;99.90
1083;DHT22;530;51.448;7.238;2023-09-12T16:40:53;24.30;99.90
1083;DHT22;530;51.448;7.238;2023-09-12T16:43:19;24.20;99.90
1083;DHT22;530;51.448;7.238;2023-09-12T16:45:45;24.20;99.90
1083;DHT22;530;51.448;7.238;2023-09-12T16:48:11;24.20;99.90
1083;DHT22;530;51.448;7.238;2023-09-12T16:50:36;24.20;99.90
1083;DHT22;530;51.448;7.238;2023-09-12T16:53:02;24.10;99.90
1083;DHT22;530;51.448;7.238;2023-09-12T16:55:29;24.10;99.90
1083;DHT22;530;51.448;7.238;2023-09-12T16:57:55;24.10;99.90
1083;DHT22;530;51.448;7.238;2023-09-12T17:00:21;24.00;99.90
1083;DHT22;530;51.448;7.238;2023-09-12T17:02:47;24.00;99.90
1083;DHT22;530;51.448;7.238;2023-09-12T17:05:13;23.80;99.90
1083;DHT22;530;51.448;7.238;2023-09-12T17:07:38;23.80;99.90
1083;DHT22;530;51.448;7.238;2023-09-12T17:10:05;23.80;99.90
1083;DHT22;530;51.448;7.238;2023-09-12T17:12:30;23.70;99.90
1083;DHT22;530;51.448;7.238;2023-09-12T17:14:56;23.70;99.90
1083;DHT22;530;51.448;7.238;2023-09-12T17:17:22;23.70;99.90